Time;durP1;ratioP1;P1;durP2;ratioP2;P2;SDS_P1;SDS_P2;PMS_P1;PMS_P2;Temp;Humidity;BMP_temperature;BMP_pressure;BME280_temperature;BME280_humidity;BME280_pressure;Samples;Min_cycle;Max_cycle;Signal;HPM_P1;HPM_P2
2022/06/26 00:01:51;;;;;;;2.05;1.83;;;;;;;;;;10459808;28;20048;-68
2022/06/26 00:06:55;;;;;;;1.60;1.50;;;;;;;;;;10436659;28;20041;-68
2022/06/26 00:11:59;;;;;;;2.45;1.80;;;;;;;;;;10454479;28;20240;-68
2022/06/26 00:17:01;;;;;;;2.17;1.90;;;;;;;;;;10460287;28;20050;-68
2022/06/26 00:22:05;;;;;;;1.63;1.52;;;;;;;;;;10435871;28;20057;-68
2022/06/26 00:27:10;;;;;;;2.65;1.85;;;;;;;;;;10435280;28;20061;-67
2022/06/26 00:32:12;;;;;;;3.88;1.98;;;;;;;;;;10435479;28;20068;-67
2022/06/26 00:37:14;;;;;;;1.90;1.80;;;;;;;;;;10436181;28;20049;-67
2022/06/26 00:42:17;;;;;;;5.85;2.80;;;;;;;;;;10462055;28;20052;-68
2022/06/26 00:47:20;;;;;;;3.07;2.10;;;;;;;;;;10476833;28;20045;-67
2022/06/26 00:52:24;;;;;;;2.80;2.28;;;;;;;;;;10440749;28;20045;-67
2022/06/26 00:57:28;;;;;;;1.70;1.50;;;;;;;;;;10438782;28;20041;-68
2022/06/26 01:02:30;;;;;;;2.20;2.00;;;;;;;;;;10477162;28;20041;-68
2022/06/26 01:07:33;;;;;;;2.25;2.05;;;;;;;;;;10462718;28;20214;-68
2022/06/26 01:12:37;;;;;;;2.15;1.98;;;;;;;;;;10435806;28;20061;-68
2022/06/26 01:17:40;;;;;;;2.10;2.00;;;;;;;;;;10436041;28;20049;-67
2022/06/26 01:22:44;;;;;;;2.08;1.90;;;;;;;;;;10457170;28;20053;-67
2022/06/26 01:27:46;;;;;;;3.35;1.98;;;;;;;;;;10455409;28;20049;-67
2022/06/26 01:32:48;;;;;;;5.15;2.50;;;;;;;;;;10435447;28;20056;-67
2022/06/26 01:37:51;;;;;;;2.58;2.10;;;;;;;;;;10437225;28;20050;-67
2022/06/26 01:42:54;;;;;;;2.53;2.10;;;;;;;;;;10443073;28;20045;-67
2022/06/26 01:47:56;;;;;;;3.60;2.45;;;;;;;;;;10443834;28;20038;-67
2022/06/26 01:52:59;;;;;;;2.45;2.25;;;;;;;;;;10442919;28;20056;-67
2022/06/26 01:58:02;;;;;;;3.50;2.55;;;;;;;;;;10460657;28;20244;-67
2022/06/26 02:03:05;;;;;;;3.22;2.42;;;;;;;;;;10484513;28;20048;-68
2022/06/26 02:08:09;;;;;;;2.97;2.67;;;;;;;;;;10455311;28;20072;-68
2022/06/26 02:18:33;;;;;;;2.75;2.55;;;;;;;;;;10481388;28;20237;-67
2022/06/26 02:23:39;;;;;;;2.80;2.47;;;;;;;;;;10466370;28;20056;-67
2022/06/26 02:28:41;;;;;;;4.13;2.78;;;;;;;;;;10448576;28;20033;-67
2022/06/26 02:33:43;;;;;;;3.75;2.15;;;;;;;;;;10453625;28;20064;-67
2022/06/26 02:38:47;;;;;;;2.38;2.17;;;;;;;;;;10441242;28;20060;-67
2022/06/26 02:43:49;;;;;;;3.23;2.63;;;;;;;;;;10464273;28;20057;-67
2022/06/26 02:48:51;;;;;;;3.30;2.15;;;;;;;;;;10451209;28;20056;-67
2022/06/26 02:53:54;;;;;;;4.32;3.97;;;;;;;;;;10480872;28;20064;-67
2022/06/26 02:58:57;;;;;;;4.88;4.57;;;;;;;;;;10470175;28;20053;-68
2022/06/26 03:03:59;;;;;;;13.25;11.95;;;;;;;;;;10449755;28;20041;-67
2022/06/26 03:09:02;;;;;;;7.35;7.03;;;;;;;;;;10470541;28;20049;-67
2022/06/26 03:14:05;;;;;;;6.90;6.60;;;;;;;;;;10439546;28;20230;-67
2022/06/26 03:19:07;;;;;;;7.20;6.90;;;;;;;;;;10439125;28;20284;-67
2022/06/26 03:24:10;;;;;;;12.30;11.60;;;;;;;;;;10447714;28;20293;-67
2022/06/26 03:29:12;;;;;;;0.60;0.60;;;;;;;;;;10479836;28;20266;-67
2022/06/26 03:34:15;;;;;;;1.23;1.23;;;;;;;;;;10473778;28;20324;-67
2022/06/26 03:39:19;;;;;;;0.30;0.30;;;;;;;;;;10443557;28;20045;-67
2022/06/26 03:44:21;;;;;;;0.10;0.10;;;;;;;;;;10440693;28;20048;-67
2022/06/26 03:49:23;;;;;;;0.10;0.10;;;;;;;;;;10457653;28;20053;-68
2022/06/26 03:54:27;;;;;;;1.65;1.65;;;;;;;;;;10452268;28;20056;-67
2022/06/26 03:59:30;;;;;;;3.05;2.95;;;;;;;;;;10445893;28;20052;-67
2022/06/26 04:04:32;;;;;;;1.42;1.42;;;;;;;;;;10449817;28;20053;-68
2022/06/26 04:09:35;;;;;;;0.00;0.00;;;;;;;;;;10476960;28;20390;-68
2022/06/26 04:14:38;;;;;;;0.00;0.00;;;;;;;;;;10475104;28;20057;-68
2022/06/26 04:19:40;;;;;;;0.00;0.00;;;;;;;;;;10437312;28;20053;-68
2022/06/26 04:24:44;;;;;;;0.00;0.00;;;;;;;;;;10436737;28;20041;-67
2022/06/26 04:29:46;;;;;;;0.00;0.00;;;;;;;;;;10463596;28;20243;-68
2022/06/26 04:34:48;;;;;;;0.00;0.00;;;;;;;;;;10473202;28;20054;-68
2022/06/26 04:39:52;;;;;;;0.00;0.00;;;;;;;;;;10437232;28;20143;-68
2022/06/26 04:44:54;;;;;;;0.13;0.13;;;;;;;;;;10443019;28;20057;-68
2022/06/26 04:49:56;;;;;;;0.00;0.00;;;;;;;;;;10465020;28;20068;-67
2022/06/26 04:54:59;;;;;;;0.00;0.00;;;;;;;;;;10474243;28;20263;-68
2022/06/26 05:00:03;;;;;;;0.00;0.00;;;;;;;;;;10435896;28;20060;-68
2022/06/26 05:05:06;;;;;;;0.00;0.00;;;;;;;;;;10435981;28;20045;-67
2022/06/26 05:10:10;;;;;;;0.00;0.00;;;;;;;;;;10469050;28;20052;-67
2022/06/26 05:15:12;;;;;;;0.00;0.00;;;;;;;;;;10443583;28;20057;-68
2022/06/26 05:20:14;;;;;;;0.00;0.00;;;;;;;;;;10467249;28;20363;-67
2022/06/26 05:25:18;;;;;;;0.00;0.00;;;;;;;;;;10457897;28;20037;-67
2022/06/26 05:30:21;;;;;;;0.00;0.00;;;;;;;;;;10451870;28;20313;-68
2022/06/26 05:35:23;;;;;;;0.10;0.10;;;;;;;;;;10450814;28;20048;-67
2022/06/26 05:40:26;;;;;;;0.10;0.10;;;;;;;;;;10448296;28;20054;-67
2022/06/26 05:45:28;;;;;;;0.20;0.20;;;;;;;;;;10440858;28;20045;-68
2022/06/26 05:50:31;;;;;;;0.40;0.40;;;;;;;;;;10449550;28;20057;-68
2022/06/26 05:55:36;;;;;;;0.60;0.60;;;;;;;;;;10454653;28;20049;-67
2022/06/26 06:00:39;;;;;;;0.88;0.88;;;;;;;;;;10449204;28;20328;-67
2022/06/26 06:05:41;;;;;;;1.10;1.10;;;;;;;;;;10452780;28;20044;-67
2022/06/26 06:10:45;;;;;;;1.40;1.40;;;;;;;;;;10443186;28;20068;-67
2022/06/26 06:15:47;;;;;;;1.70;1.70;;;;;;;;;;10433523;28;20065;-67
2022/06/26 06:20:50;;;;;;;2.30;2.30;;;;;;;;;;10445653;28;20346;-68
2022/06/26 06:25:53;;;;;;;3.20;3.10;;;;;;;;;;10454414;28;20050;-67
2022/06/26 06:30:56;;;;;;;4.20;4.10;;;;;;;;;;10465388;28;20068;-67
2022/06/26 06:35:58;;;;;;;5.50;5.30;;;;;;;;;;10453094;28;20049;-67
2022/06/26 06:41:02;;;;;;;6.78;6.57;;;;;;;;;;10455419;28;20335;-67
2022/06/26 06:46:04;;;;;;;8.10;7.80;;;;;;;;;;10453611;28;20057;-68
2022/06/26 06:51:06;;;;;;;10.00;9.60;;;;;;;;;;10439565;28;20045;-68
2022/06/26 06:56:10;;;;;;;11.50;11.00;;;;;;;;;;10439444;28;20065;-67
2022/06/26 07:01:13;;;;;;;13.27;12.68;;;;;;;;;;10440291;28;20061;-66
2022/06/26 07:06:15;;;;;;;14.88;14.18;;;;;;;;;;10459025;28;20124;-68
2022/06/26 07:11:18;;;;;;;17.23;16.42;;;;;;;;;;10440910;28;20064;-68
2022/06/26 07:16:27;;;;;;;19.10;18.20;;;;;;;;;;10453769;28;20061;-68
2022/06/26 07:21:29;;;;;;;19.85;18.85;;;;;;;;;;10438669;28;20057;-68
2022/06/26 19:19:51;;;;;;;0.00;0.00;;;;;;;;;;10595006;27;20399;-66
2022/06/26 19:24:54;;;;;;;0.00;0.00;;;;;;;;;;10609399;27;20055;-69
2022/06/26 19:29:56;;;;;;;0.00;0.00;;;;;;;;;;10609005;28;20047;-67
2022/06/26 19:35:00;;;;;;;0.00;0.00;;;;;;;;;;10606929;28;20039;-67
2022/06/26 19:40:07;;;;;;;0.00;0.00;;;;;;;;;;10605786;28;20269;-67
2022/06/26 19:45:11;;;;;;;0.00;0.00;;;;;;;;;;10597602;28;20055;-68
2022/06/26 19:55:34;;;;;;;0.00;0.00;;;;;;;;;;10610679;28;20059;-72
2022/06/26 20:00:38;;;;;;;0.00;0.00;;;;;;;;;;10594004;28;20043;-68
2022/06/26 20:05:42;;;;;;;0.00;0.00;;;;;;;;;;10592892;28;20055;-68
2022/06/26 20:10:44;;;;;;;0.00;0.00;;;;;;;;;;10597725;28;20050;-67
2022/06/26 20:15:47;;;;;;;0.00;0.00;;;;;;;;;;10644849;27;20051;-68
2022/06/26 20:20:51;;;;;;;0.00;0.00;;;;;;;;;;10630220;27;20038;-67
2022/06/26 20:25:53;;;;;;;0.00;0.00;;;;;;;;;;10611339;28;20059;-68
2022/06/26 20:30:56;;;;;;;0.00;0.00;;;;;;;;;;10597029;27;20332;-67
2022/06/26 20:36:00;;;;;;;0.00;0.00;;;;;;;;;;10577279;28;20048;-67
2022/06/26 20:41:02;;;;;;;0.00;0.00;;;;;;;;;;10565345;28;20074;-67
2022/06/26 20:46:06;;;;;;;0.00;0.00;;;;;;;;;;10603543;28;20231;-68
2022/06/26 20:51:10;;;;;;;0.00;0.00;;;;;;;;;;10552377;28;20255;-68
2022/06/26 20:56:15;;;;;;;0.00;0.00;;;;;;;;;;10592804;28;20051;-68
2022/06/26 21:01:19;;;;;;;0.00;0.00;;;;;;;;;;10582278;28;21406;-67
2022/06/26 21:06:23;;;;;;;0.03;0.03;;;;;;;;;;10601659;28;20096;-68
2022/06/26 21:11:25;;;;;;;0.00;0.00;;;;;;;;;;10593402;28;20063;-67
2022/06/26 21:16:27;;;;;;;0.00;0.00;;;;;;;;;;10591641;28;20351;-68
2022/06/26 21:21:31;;;;;;;0.00;0.00;;;;;;;;;;10576907;28;20117;-68
2022/06/26 21:26:33;;;;;;;;;;;;;;;;;;10574141;28;20048;-67
2022/06/26 21:31:36;;;;;;;0.00;0.00;;;;;;;;;;10579049;28;19924;-67
2022/06/26 21:36:39;;;;;;;0.00;0.00;;;;;;;;;;10560936;28;20052;-68
2022/06/26 21:41:44;;;;;;;0.00;0.00;;;;;;;;;;10603877;28;20047;-67
2022/06/26 21:46:46;;;;;;;0.00;0.00;;;;;;;;;;10537798;28;20089;-68
2022/06/26 21:51:49;;;;;;;0.00;0.00;;;;;;;;;;10575769;28;20040;-68
2022/06/26 21:56:52;;;;;;;0.00;0.00;;;;;;;;;;10564458;28;20277;-67
2022/06/26 22:01:54;;;;;;;0.10;0.10;;;;;;;;;;10577297;28;20048;-67
2022/06/26 22:06:58;;;;;;;0.17;0.13;;;;;;;;;;10561850;28;20051;-67
2022/06/26 22:12:00;;;;;;;0.15;0.15;;;;;;;;;;10561086;28;20056;-68
2022/06/26 22:17:03;;;;;;;0.10;0.10;;;;;;;;;;10560707;28;20052;-68
2022/06/26 22:22:07;;;;;;;0.20;0.20;;;;;;;;;;10574877;28;20285;-68
2022/06/26 22:32:28;;;;;;;0.13;0.13;;;;;;;;;;10532389;28;20211;-67
2022/06/26 22:37:32;;;;;;;0.10;0.10;;;;;;;;;;10532324;28;20044;-67
2022/06/26 22:42:34;;;;;;;0.15;0.15;;;;;;;;;;10518014;28;20332;-67
2022/06/26 22:47:36;;;;;;;0.10;0.10;;;;;;;;;;10531863;28;20044;-67
2022/06/26 22:52:40;;;;;;;0.13;0.13;;;;;;;;;;10550009;28;20047;-67
2022/06/26 22:57:42;;;;;;;0.32;0.15;;;;;;;;;;10541787;28;20044;-67
2022/06/26 23:02:48;;;;;;;0.10;0.10;;;;;;;;;;10530551;28;20054;-67
2022/06/26 23:07:51;;;;;;;0.10;0.10;;;;;;;;;;10531680;28;20097;-67
2022/06/26 23:12:53;;;;;;;0.10;0.10;;;;;;;;;;10516989;28;20150;-67
2022/06/26 23:17:56;;;;;;;0.20;0.20;;;;;;;;;;10548419;28;20060;-68
2022/06/26 23:23:01;;;;;;;0.13;0.13;;;;;;;;;;10598497;28;20226;-67
2022/06/26 23:28:03;;;;;;;0.30;0.25;;;;;;;;;;10588963;28;20059;-67
2022/06/26 23:33:05;;;;;;;0.25;0.25;;;;;;;;;;10572137;28;20070;-67
2022/06/26 23:38:08;;;;;;;0.32;0.30;;;;;;;;;;10572385;28;20155;-66
2022/06/26 23:43:10;;;;;;;0.30;0.30;;;;;;;;;;10573822;28;20056;-66
2022/06/26 23:48:13;;;;;;;0.20;0.20;;;;;;;;;;10572230;28;20048;-67
2022/06/26 23:53:16;;;;;;;0.30;0.30;;;;;;;;;;10571347;28;20350;-68
2022/06/26 23:58:19;;;;;;;0.52;0.52;;;;;;;;;;10579147;28;20219;-67
